Time;durP1;ratioP1;P1;durP2;ratioP2;P2;SDS_P1;SDS_P2;PMS_P1;PMS_P2;Temp;Humidity;BMP_temperature;BMP_pressure;BME280_temperature;BME280_humidity;BME280_pressure;Samples;Min_cycle;Max_cycle;Signal;HPM_P1;HPM_P2
2022/11/29 00:00:19;;;;;;;1.50;0.80;;;;;;;;;;4969869;28;20506;-61
2022/11/29 00:02:52;;;;;;;1.73;0.93;;;;;;;;;;4970275;28;20059;-63
2022/11/29 00:05:22;;;;;;;3.88;1.05;;;;;;;;;;4989453;28;20076;-61
2022/11/29 00:07:52;;;;;;;2.55;1.13;;;;;;;;;;4989192;28;20070;-62
2022/11/29 00:10:22;;;;;;;4.18;0.90;;;;;;;;;;4942305;28;20409;-61
2022/11/29 00:12:52;;;;;;;2.10;0.80;;;;;;;;;;4986570;28;20080;-61
2022/11/29 00:15:22;;;;;;;2.38;0.70;;;;;;;;;;4981967;28;20057;-62
2022/11/29 00:17:52;;;;;;;3.58;0.80;;;;;;;;;;5052994;28;20053;-61
2022/11/29 00:20:22;;;;;;;1.20;0.70;;;;;;;;;;5052737;28;20053;-61
2022/11/29 00:22:52;;;;;;;2.95;0.82;;;;;;;;;;5052801;28;20085;-61
2022/11/29 00:25:22;;;;;;;1.80;0.82;;;;;;;;;;5036525;28;20056;-62
2022/11/29 00:27:52;;;;;;;4.07;0.80;;;;;;;;;;5036198;28;20079;-64
2022/11/29 00:30:23;;;;;;;2.85;0.82;;;;;;;;;;5052862;28;20505;-62
2022/11/29 00:32:53;;;;;;;3.00;1.30;;;;;;;;;;5051153;28;20056;-63
2022/11/29 00:35:23;;;;;;;1.92;1.25;;;;;;;;;;5052645;28;20464;-64
2022/11/29 00:37:52;;;;;;;2.15;0.93;;;;;;;;;;5053636;28;20067;-60
2022/11/29 00:40:22;;;;;;;1.45;0.80;;;;;;;;;;5054772;28;20037;-69
2022/11/29 00:42:52;;;;;;;2.55;0.63;;;;;;;;;;5019461;28;20045;-61
2022/11/29 00:45:22;;;;;;;4.05;0.63;;;;;;;;;;5054739;28;20041;-61
2022/11/29 00:47:52;;;;;;;2.97;0.80;;;;;;;;;;5054784;28;20056;-62
2022/11/29 00:50:22;;;;;;;1.17;0.70;;;;;;;;;;5055038;28;20519;-61
2022/11/29 00:52:52;;;;;;;1.70;0.75;;;;;;;;;;5054685;28;20052;-61
2022/11/29 00:55:22;;;;;;;0.88;0.52;;;;;;;;;;5068814;28;20045;-62
2022/11/29 00:57:51;;;;;;;2.85;0.90;;;;;;;;;;5054497;28;20052;-60
2022/11/29 01:00:22;;;;;;;0.95;0.60;;;;;;;;;;5052174;28;20504;-60
2022/11/29 01:02:51;;;;;;;3.58;0.77;;;;;;;;;;5068509;28;20057;-59
2022/11/29 01:05:21;;;;;;;0.88;0.35;;;;;;;;;;5019401;28;20707;-61
2022/11/29 01:07:51;;;;;;;1.60;0.80;;;;;;;;;;5019129;28;20386;-69
2022/11/29 01:10:21;;;;;;;1.50;0.60;;;;;;;;;;5018298;28;20053;-61
2022/11/29 01:12:52;;;;;;;1.98;0.60;;;;;;;;;;5052073;28;20048;-62
2022/11/29 01:15:23;;;;;;;2.85;1.20;;;;;;;;;;5067615;28;20403;-62
2022/11/29 01:17:52;;;;;;;2.65;0.80;;;;;;;;;;5051680;28;20432;-61
2022/11/29 01:20:23;;;;;;;3.60;1.13;;;;;;;;;;5035544;28;20424;-66
2022/11/29 01:22:54;;;;;;;1.98;0.68;;;;;;;;;;5018011;28;20053;-63
2022/11/29 01:25:24;;;;;;;2.05;0.65;;;;;;;;;;5051449;28;20064;-62
2022/11/29 01:27:54;;;;;;;1.35;0.57;;;;;;;;;;5051735;28;20072;-62
2022/11/29 01:30:24;;;;;;;2.42;0.55;;;;;;;;;;5051951;28;20072;-68
2022/11/29 01:32:54;;;;;;;2.67;0.70;;;;;;;;;;5038101;28;20053;-60
2022/11/29 01:35:24;;;;;;;2.88;0.70;;;;;;;;;;5037985;28;20052;-61
2022/11/29 01:37:56;;;;;;;1.02;0.57;;;;;;;;;;5001425;28;20496;-62
2022/11/29 01:40:26;;;;;;;1.30;0.60;;;;;;;;;;5051506;28;20064;-63
2022/11/29 01:42:55;;;;;;;1.35;0.70;;;;;;;;;;5071467;28;20056;-61
2022/11/29 01:45:26;;;;;;;0.60;0.40;;;;;;;;;;5021433;28;20056;-61
2022/11/29 01:47:57;;;;;;;0.98;0.50;;;;;;;;;;5037703;28;20052;-63
2022/11/29 01:50:27;;;;;;;0.77;0.40;;;;;;;;;;5071313;28;20057;-61
2022/11/29 01:52:58;;;;;;;0.50;0.30;;;;;;;;;;5021311;28;20110;-61
2022/11/29 01:55:29;;;;;;;0.90;0.32;;;;;;;;;;5071016;28;20057;-61
2022/11/29 01:58:00;;;;;;;1.08;1.02;;;;;;;;;;5050810;28;20068;-61
2022/11/29 02:00:31;;;;;;;0.43;0.40;;;;;;;;;;5017518;28;20068;-60
2022/11/29 02:03:19;;;;;;;1.75;0.60;;;;;;;;;;5050539;28;20052;-61
2022/11/29 02:05:51;;;;;;;0.20;0.20;;;;;;;;;;5033858;28;20497;-60
2022/11/29 02:08:49;;;;;;;1.85;0.30;;;;;;;;;;5050769;28;20165;-62
2022/11/29 02:11:50;;;;;;;0.65;0.32;;;;;;;;;;4962478;28;20054;-61
2022/11/29 02:14:28;;;;;;;0.20;0.20;;;;;;;;;;5010762;28;20062;-61
2022/11/29 02:17:27;;;;;;;0.80;0.32;;;;;;;;;;5030291;28;20056;-61
2022/11/29 02:20:35;;;;;;;2.97;0.80;;;;;;;;;;5030696;28;20430;-61
2022/11/29 02:23:30;;;;;;;0.22;0.22;;;;;;;;;;4971651;28;20058;-65
2022/11/29 02:26:33;;;;;;;0.75;0.30;;;;;;;;;;4939479;28;20051;-62
2022/11/29 02:29:30;;;;;;;0.43;0.20;;;;;;;;;;4980436;28;20050;-60
2022/11/29 02:32:18;;;;;;;0.65;0.40;;;;;;;;;;4991216;28;20542;-60
2022/11/29 02:34:51;;;;;;;0.50;0.35;;;;;;;;;;4990333;28;20066;-61
2022/11/29 02:37:33;;;;;;;1.52;0.50;;;;;;;;;;4974683;28;20053;-61
2022/11/29 02:40:21;;;;;;;1.05;0.20;;;;;;;;;;4991096;28;20050;-61
2022/11/29 02:43:05;;;;;;;1.20;0.40;;;;;;;;;;4971182;28;20047;-62
2022/11/29 02:45:47;;;;;;;2.55;0.30;;;;;;;;;;4971581;28;20055;-61
2022/11/29 02:48:37;;;;;;;0.45;0.45;;;;;;;;;;4981341;28;20054;-61
2022/11/29 02:51:45;;;;;;;0.50;0.32;;;;;;;;;;4942518;28;20058;-61
2022/11/29 02:54:25;;;;;;;0.50;0.47;;;;;;;;;;4913696;29;20060;-63
2022/11/29 02:57:14;;;;;;;1.17;0.30;;;;;;;;;;4897714;29;20611;-65
2022/11/29 02:59:50;;;;;;;0.60;0.32;;;;;;;;;;4933243;28;20502;-62
2022/11/29 03:02:43;;;;;;;0.90;0.30;;;;;;;;;;4990631;28;20058;-61
2022/11/29 03:05:21;;;;;;;0.45;0.30;;;;;;;;;;4990984;28;20054;-62
2022/11/29 03:08:13;;;;;;;0.85;0.40;;;;;;;;;;4990634;28;20506;-61
2022/11/29 03:10:49;;;;;;;0.80;0.20;;;;;;;;;;4990503;28;20521;-63
2022/11/29 03:13:42;;;;;;;0.63;0.43;;;;;;;;;;4990762;28;20061;-59
2022/11/29 03:16:50;;;;;;;1.30;0.20;;;;;;;;;;4931920;29;20440;-60
2022/11/29 03:19:23;;;;;;;0.75;0.50;;;;;;;;;;4860102;29;20421;-61
2022/11/29 03:22:12;;;;;;;1.92;0.38;;;;;;;;;;4876096;29;20057;-61
2022/11/29 03:24:55;;;;;;;1.05;0.40;;;;;;;;;;4875716;29;20413;-62
2022/11/29 03:28:05;;;;;;;0.47;0.30;;;;;;;;;;4876086;29;20421;-61
2022/11/29 03:30:37;;;;;;;;;;;;;;;;;;4879419;29;20060;-61
2022/11/29 03:33:30;;;;;;;1.33;0.38;;;;;;;;;;4878852;29;19923;-61
2022/11/29 03:36:33;;;;;;;0.73;0.40;;;;;;;;;;4894410;29;20150;-62
2022/11/29 03:39:08;;;;;;;1.05;0.40;;;;;;;;;;4894521;29;20052;-63
2022/11/29 03:41:49;;;;;;;2.03;0.50;;;;;;;;;;4894367;29;20052;-62
2022/11/29 03:44:33;;;;;;;3.55;0.45;;;;;;;;;;4893932;29;20505;-62
2022/11/29 03:47:32;;;;;;;0.40;0.30;;;;;;;;;;4894307;29;20075;-63
2022/11/29 03:50:26;;;;;;;4.20;0.30;;;;;;;;;;4894277;29;20071;-64
2022/11/29 03:53:10;;;;;;;0.40;0.30;;;;;;;;;;4899525;29;20548;-62
2022/11/29 03:55:49;;;;;;;1.10;0.52;;;;;;;;;;4929275;28;20466;-60
2022/11/29 03:58:43;;;;;;;0.90;0.30;;;;;;;;;;4970378;28;20055;-60
2022/11/29 04:01:43;;;;;;;1.25;0.73;;;;;;;;;;4970723;28;20050;-61
2022/11/29 04:04:23;;;;;;;1.38;0.40;;;;;;;;;;4922832;28;20066;-60
2022/11/29 04:07:31;;;;;;;0.95;0.30;;;;;;;;;;4937636;28;20189;-61
2022/11/29 04:10:43;;;;;;;1.42;0.32;;;;;;;;;;4916037;29;20121;-61
2022/11/29 04:13:54;;;;;;;1.02;0.40;;;;;;;;;;4931914;29;20067;-61
2022/11/29 04:16:27;;;;;;;0.95;0.40;;;;;;;;;;4915404;29;20554;-61
2022/11/29 04:19:36;;;;;;;1.05;0.40;;;;;;;;;;4900610;29;20056;-61
2022/11/29 04:22:36;;;;;;;1.58;0.32;;;;;;;;;;4896365;29;20160;-60
2022/11/29 04:25:33;;;;;;;0.47;0.30;;;;;;;;;;4912980;29;20079;-61
2022/11/29 04:28:13;;;;;;;0.73;0.20;;;;;;;;;;4899332;29;20048;-61
2022/11/29 04:31:10;;;;;;;1.42;0.47;;;;;;;;;;4958130;28;20048;-61
2022/11/29 04:34:27;;;;;;;0.55;0.28;;;;;;;;;;4951027;28;20055;-61
2022/11/29 04:37:17;;;;;;;1.45;0.22;;;;;;;;;;4899966;29;20075;-61
2022/11/29 04:40:03;;;;;;;1.40;0.40;;;;;;;;;;4933364;28;20389;-61
2022/11/29 04:42:55;;;;;;;0.90;0.28;;;;;;;;;;4953201;28;20062;-63
2022/11/29 04:45:39;;;;;;;1.10;0.35;;;;;;;;;;4970025;28;20059;-61
2022/11/29 04:48:20;;;;;;;0.95;0.40;;;;;;;;;;4970245;28;20051;-62
2022/11/29 04:50:56;;;;;;;2.17;0.45;;;;;;;;;;4922499;28;20059;-61
2022/11/29 04:53:50;;;;;;;1.88;0.50;;;;;;;;;;4954071;28;20502;-62
2022/11/29 04:56:46;;;;;;;1.73;0.32;;;;;;;;;;4922919;28;20051;-61
2022/11/29 04:59:19;;;;;;;0.68;0.20;;;;;;;;;;4970761;28;20048;-61
2022/11/29 05:02:10;;;;;;;2.58;0.60;;;;;;;;;;5019064;28;20056;-61
2022/11/29 05:05:06;;;;;;;0.55;0.20;;;;;;;;;;5052108;28;20052;-60
2022/11/29 05:08:03;;;;;;;1.65;0.50;;;;;;;;;;4992531;28;20525;-62
2022/11/29 05:10:51;;;;;;;0.82;0.30;;;;;;;;;;4999995;28;20062;-62
2022/11/29 05:13:22;;;;;;;0.88;0.30;;;;;;;;;;4995971;28;20064;-61
2022/11/29 05:16:20;;;;;;;0.50;0.20;;;;;;;;;;5011694;28;20057;-62
2022/11/29 05:19:11;;;;;;;2.35;0.20;;;;;;;;;;5012159;28;20054;-61
2022/11/29 05:21:52;;;;;;;1.83;0.40;;;;;;;;;;5012453;28;20066;-61
2022/11/29 05:24:46;;;;;;;0.60;0.30;;;;;;;;;;5011876;28;20046;-60
2022/11/29 05:27:51;;;;;;;0.35;0.22;;;;;;;;;;4995997;28;20053;-62
2022/11/29 05:30:31;;;;;;;4.88;0.40;;;;;;;;;;4976375;28;20058;-61
2022/11/29 05:33:13;;;;;;;0.95;0.22;;;;;;;;;;4976711;28;20059;-61
2022/11/29 05:36:01;;;;;;;1.80;0.43;;;;;;;;;;4972635;28;20538;-61
2022/11/29 05:38:40;;;;;;;1.45;0.30;;;;;;;;;;4972967;28;20055;-64
2022/11/29 05:41:24;;;;;;;0.52;0.30;;;;;;;;;;4972598;28;20059;-64
2022/11/29 05:44:21;;;;;;;1.02;0.22;;;;;;;;;;4942799;28;20055;-61
2022/11/29 05:47:08;;;;;;;1.42;0.22;;;;;;;;;;4992279;28;20058;-61
2022/11/29 05:49:52;;;;;;;0.47;0.28;;;;;;;;;;4976146;28;20057;-63
2022/11/29 05:52:33;;;;;;;0.60;0.20;;;;;;;;;;4958856;28;20059;-62
2022/11/29 05:55:29;;;;;;;1.70;0.20;;;;;;;;;;4991764;28;20569;-61
2022/11/29 05:58:35;;;;;;;1.40;0.20;;;;;;;;;;4991674;28;20050;-60
2022/11/29 06:01:22;;;;;;;0.60;0.30;;;;;;;;;;4953048;29;20063;-62
2022/11/29 06:04:00;;;;;;;1.05;0.20;;;;;;;;;;4972213;28;20065;-61
2022/11/29 06:06:38;;;;;;;1.83;0.38;;;;;;;;;;4956352;28;20058;-60
2022/11/29 06:09:18;;;;;;;0.57;0.15;;;;;;;;;;4972644;28;20047;-61
2022/11/29 06:12:04;;;;;;;1.02;0.30;;;;;;;;;;4972392;28;20062;-61
2022/11/29 06:15:33;;;;;;;0.70;0.30;;;;;;;;;;5010683;28;20057;-62
2022/11/29 06:18:41;;;;;;;1.65;0.30;;;;;;;;;;4972007;28;20098;-60
2022/11/29 06:21:47;;;;;;;0.60;0.20;;;;;;;;;;4991429;28;20062;-61
2022/11/29 06:24:55;;;;;;;1.20;0.52;;;;;;;;;;4937720;29;20055;-61
2022/11/29 06:28:03;;;;;;;1.20;0.30;;;;;;;;;;4951618;29;20058;-61
2022/11/29 06:30:52;;;;;;;0.80;0.22;;;;;;;;;;4952008;29;20062;-61
2022/11/29 06:33:55;;;;;;;1.25;0.35;;;;;;;;;;4952011;29;20062;-61
2022/11/29 06:37:13;;;;;;;1.40;0.30;;;;;;;;;;4933758;29;20047;-63
2022/11/29 06:39:56;;;;;;;1.65;0.30;;;;;;;;;;4970772;28;20059;-61
2022/11/29 06:42:39;;;;;;;0.70;0.50;;;;;;;;;;4938743;28;20550;-61
2022/11/29 06:45:23;;;;;;;0.32;0.28;;;;;;;;;;4970155;28;20056;-60
2022/11/29 06:48:09;;;;;;;0.90;0.30;;;;;;;;;;4970587;28;20403;-60
2022/11/29 06:51:15;;;;;;;1.73;0.38;;;;;;;;;;4977097;28;20130;-60
2022/11/29 06:53:53;;;;;;;1.17;0.43;;;;;;;;;;4907320;28;20050;-61
2022/11/29 06:56:29;;;;;;;1.67;0.40;;;;;;;;;;4971389;28;20051;-65
2022/11/29 06:59:18;;;;;;;1.38;0.20;;;;;;;;;;4920404;29;20534;-60
2022/11/29 07:02:11;;;;;;;2.47;0.20;;;;;;;;;;4983590;28;20056;-61
2022/11/29 07:04:59;;;;;;;5.03;0.50;;;;;;;;;;4994487;28;20050;-64
2022/11/29 07:07:30;;;;;;;2.33;0.50;;;;;;;;;;5010408;28;20058;-60
2022/11/29 07:10:02;;;;;;;1.05;0.28;;;;;;;;;;5010228;28;20050;-60
2022/11/29 07:12:35;;;;;;;0.40;0.30;;;;;;;;;;5010461;28;20509;-62
2022/11/29 07:15:05;;;;;;;5.72;0.60;;;;;;;;;;5049308;28;20064;-69
2022/11/29 07:17:42;;;;;;;1.30;0.30;;;;;;;;;;5016846;28;20049;-61
2022/11/29 07:20:15;;;;;;;0.70;0.20;;;;;;;;;;5049123;28;20049;-60
2022/11/29 07:23:02;;;;;;;1.73;0.40;;;;;;;;;;5049732;28;20049;-61
2022/11/29 07:25:40;;;;;;;0.82;0.50;;;;;;;;;;5068254;28;20059;-60
2022/11/29 07:28:38;;;;;;;1.38;0.50;;;;;;;;;;5072020;28;20051;-65
2022/11/29 07:31:16;;;;;;;2.95;0.50;;;;;;;;;;5086860;28;20048;-60
2022/11/29 07:33:58;;;;;;;1.10;0.30;;;;;;;;;;5070804;28;20041;-63
2022/11/29 07:36:28;;;;;;;0.75;0.30;;;;;;;;;;5072026;28;20483;-61
2022/11/29 07:39:30;;;;;;;1.90;0.40;;;;;;;;;;5071723;28;20412;-60
2022/11/29 07:42:10;;;;;;;0.82;0.30;;;;;;;;;;5085979;28;20052;-60
2022/11/29 07:44:52;;;;;;;1.02;0.35;;;;;;;;;;5071969;28;20045;-60
2022/11/29 07:47:22;;;;;;;3.50;0.43;;;;;;;;;;5069415;28;20055;-61
2022/11/29 07:49:52;;;;;;;2.05;0.20;;;;;;;;;;5071727;28;20051;-60
2022/11/29 07:52:22;;;;;;;0.80;0.32;;;;;;;;;;5071650;28;20040;-61
2022/11/29 07:54:52;;;;;;;2.28;0.30;;;;;;;;;;5053067;28;20063;-61
2022/11/29 07:57:22;;;;;;;0.77;0.20;;;;;;;;;;5071553;28;20511;-60
2022/11/29 07:59:52;;;;;;;0.80;0.40;;;;;;;;;;5071874;28;20053;-64
2022/11/29 08:02:29;;;;;;;0.30;0.22;;;;;;;;;;5071400;28;20485;-60
2022/11/29 08:05:01;;;;;;;0.80;0.28;;;;;;;;;;5071382;28;20056;-61
2022/11/29 08:07:34;;;;;;;0.70;0.30;;;;;;;;;;5086298;28;20048;-60
2022/11/29 08:10:09;;;;;;;1.23;0.75;;;;;;;;;;5036691;28;20055;-61
2022/11/29 08:12:46;;;;;;;1.65;0.52;;;;;;;;;;5071340;28;20041;-61
2022/11/29 08:15:19;;;;;;;0.93;0.32;;;;;;;;;;5071200;28;20036;-61
2022/11/29 08:17:50;;;;;;;1.58;0.60;;;;;;;;;;5085669;28;20044;-61
2022/11/29 08:20:20;;;;;;;2.50;0.50;;;;;;;;;;5071382;28;20504;-62
2022/11/29 08:22:55;;;;;;;3.42;0.43;;;;;;;;;;5085673;28;20052;-61
2022/11/29 08:25:26;;;;;;;3.92;0.50;;;;;;;;;;5071535;28;20044;-61
2022/11/29 08:27:57;;;;;;;2.10;0.20;;;;;;;;;;5052663;28;20045;-62
2022/11/29 08:30:27;;;;;;;0.60;0.22;;;;;;;;;;5071192;28;20420;-63
2022/11/29 08:32:57;;;;;;;1.05;0.30;;;;;;;;;;5088767;28;20060;-63
2022/11/29 08:35:27;;;;;;;1.20;0.40;;;;;;;;;;5089643;28;20064;-62
2022/11/29 08:37:56;;;;;;;0.70;0.50;;;;;;;;;;5072912;28;20407;-61
2022/11/29 08:40:27;;;;;;;2.13;0.40;;;;;;;;;;5075206;28;20044;-60
2022/11/29 08:42:57;;;;;;;2.33;0.40;;;;;;;;;;5063408;28;20045;-62
2022/11/29 08:45:27;;;;;;;2.88;0.32;;;;;;;;;;5063343;28;20095;-61
2022/11/29 08:47:57;;;;;;;2.10;0.43;;;;;;;;;;5019580;28;20701;-61
2022/11/29 08:50:27;;;;;;;1.17;0.32;;;;;;;;;;5036156;28;20060;-62
2022/11/29 08:55:46;;;;;;;1.30;0.93;;;;;;;;;;5054987;28;20389;-61
2022/11/29 08:58:16;;;;;;;1.23;0.22;;;;;;;;;;5054595;28;20051;-61
2022/11/29 09:00:47;;;;;;;2.03;0.40;;;;;;;;;;5055208;28;20056;-60
2022/11/29 09:06:12;;;;;;;1.67;0.47;;;;;;;;;;5035703;28;20057;-66
2022/11/29 09:08:44;;;;;;;0.85;0.30;;;;;;;;;;5053332;28;20045;-61
2022/11/29 09:11:18;;;;;;;2.20;0.40;;;;;;;;;;5054221;28;20068;-60
2022/11/29 09:13:51;;;;;;;4.97;0.32;;;;;;;;;;5018929;28;20064;-61
2022/11/29 09:16:24;;;;;;;0.75;0.32;;;;;;;;;;5034481;28;20045;-62
2022/11/29 09:18:54;;;;;;;;;;;;;;;;;;5053341;28;20378;-61
2022/11/29 09:21:26;;;;;;;2.63;0.30;;;;;;;;;;5053658;28;19920;-60
2022/11/29 09:23:59;;;;;;;1.60;0.70;;;;;;;;;;5053717;28;20041;-60
2022/11/29 09:26:32;;;;;;;4.30;1.73;;;;;;;;;;5052679;28;20499;-60
2022/11/29 09:29:06;;;;;;;3.92;1.05;;;;;;;;;;5052880;28;20041;-61
2022/11/29 09:31:37;;;;;;;2.03;0.85;;;;;;;;;;5063226;28;20037;-60
2022/11/29 09:34:06;;;;;;;5.03;0.75;;;;;;;;;;5088067;28;20060;-66
2022/11/29 09:36:36;;;;;;;4.53;0.90;;;;;;;;;;5071991;28;20043;-61
2022/11/29 09:39:06;;;;;;;4.70;1.00;;;;;;;;;;5038369;28;20504;-61
2022/11/29 09:41:57;;;;;;;1.88;0.40;;;;;;;;;;5038093;28;20057;-60
2022/11/29 09:44:35;;;;;;;3.67;0.60;;;;;;;;;;5071471;28;20048;-60
2022/11/29 09:47:31;;;;;;;3.13;0.70;;;;;;;;;;5073724;28;20041;-60
2022/11/29 09:50:29;;;;;;;2.03;0.50;;;;;;;;;;5037796;28;20061;-62
2022/11/29 09:53:28;;;;;;;1.75;0.50;;;;;;;;;;5073086;28;20044;-61
2022/11/29 09:56:11;;;;;;;1.92;0.60;;;;;;;;;;5050302;28;20049;-61
2022/11/29 09:59:10;;;;;;;2.65;0.60;;;;;;;;;;5050280;28;20397;-61
2022/11/29 10:01:51;;;;;;;3.40;0.75;;;;;;;;;;5050558;28;20052;-66
2022/11/29 10:04:28;;;;;;;1.77;1.05;;;;;;;;;;5002339;28;20448;-65
2022/11/29 10:07:27;;;;;;;3.25;0.65;;;;;;;;;;4984522;28;20057;-63
2022/11/29 10:10:06;;;;;;;3.20;0.63;;;;;;;;;;5023569;28;20060;-60
2022/11/29 10:13:19;;;;;;;1.13;0.85;;;;;;;;;;5050635;28;20049;-61
2022/11/29 10:15:53;;;;;;;5.70;1.05;;;;;;;;;;4971209;28;20063;-64
2022/11/29 10:18:55;;;;;;;3.50;0.60;;;;;;;;;;4972064;28;20062;-63
2022/11/29 10:21:31;;;;;;;4.97;1.08;;;;;;;;;;4901739;29;20051;-61
2022/11/29 10:24:08;;;;;;;4.05;1.23;;;;;;;;;;4929786;29;20067;-63
2022/11/29 10:26:38;;;;;;;2.08;0.68;;;;;;;;;;4895787;29;20052;-65
2022/11/29 10:29:16;;;;;;;1.65;0.95;;;;;;;;;;4914149;29;20051;-61
2022/11/29 10:31:48;;;;;;;2.17;0.60;;;;;;;;;;4894830;29;20063;-62
2022/11/29 10:34:22;;;;;;;1.88;0.70;;;;;;;;;;4914200;29;20071;-63
2022/11/29 10:37:00;;;;;;;1.27;0.57;;;;;;;;;;4913445;29;20052;-62
2022/11/29 10:39:38;;;;;;;1.35;0.50;;;;;;;;;;4929498;29;20502;-62
2022/11/29 10:45:26;;;;;;;3.05;0.68;;;;;;;;;;4970884;28;20055;-63
2022/11/29 10:48:09;;;;;;;3.05;0.93;;;;;;;;;;4971581;28;20058;-61
2022/11/29 10:50:43;;;;;;;7.25;3.45;;;;;;;;;;4954737;28;20050;-61
2022/11/29 10:53:15;;;;;;;5.38;1.83;;;;;;;;;;4923061;29;20071;-62
2022/11/29 10:55:59;;;;;;;2.28;0.80;;;;;;;;;;4927675;29;20048;-61
2022/11/29 10:58:31;;;;;;;1.85;0.43;;;;;;;;;;4977637;28;20077;-61
2022/11/29 11:01:05;;;;;;;1.42;0.60;;;;;;;;;;5009797;28;20058;-61
2022/11/29 11:03:49;;;;;;;1.58;0.85;;;;;;;;;;5009879;28;20061;-61
2022/11/29 11:06:24;;;;;;;1.75;0.55;;;;;;;;;;5012883;28;20054;-63
2022/11/29 11:08:56;;;;;;;0.80;0.50;;;;;;;;;;5010726;28;20072;-60
2022/11/29 11:11:31;;;;;;;0.73;0.43;;;;;;;;;;4993534;28;20045;-59
2022/11/29 11:14:22;;;;;;;5.30;0.40;;;;;;;;;;5009403;28;20457;-58
2022/11/29 11:16:53;;;;;;;5.63;1.90;;;;;;;;;;5009891;28;20053;-58
2022/11/29 11:19:31;;;;;;;2.08;1.17;;;;;;;;;;5032315;28;20432;-59
2022/11/29 11:22:03;;;;;;;3.70;2.00;;;;;;;;;;5069297;28;20063;-59
2022/11/29 11:24:38;;;;;;;0.98;0.50;;;;;;;;;;5053083;28;20048;-59
2022/11/29 11:27:09;;;;;;;4.97;3.08;;;;;;;;;;5051511;28;20044;-60
2022/11/29 11:29:43;;;;;;;3.90;0.60;;;;;;;;;;5059228;28;20048;-61
2022/11/29 11:32:19;;;;;;;0.73;0.40;;;;;;;;;;5015212;28;20044;-60
2022/11/29 11:34:54;;;;;;;0.98;0.55;;;;;;;;;;5047969;28;20132;-59
2022/11/29 11:37:29;;;;;;;9.27;4.68;;;;;;;;;;5048181;28;20056;-58
2022/11/29 11:40:27;;;;;;;1.73;0.90;;;;;;;;;;5049202;28;20056;-61
2022/11/29 11:43:00;;;;;;;1.92;1.00;;;;;;;;;;4940068;28;20440;-60
2022/11/29 11:45:35;;;;;;;3.78;0.60;;;;;;;;;;4950364;29;20443;-60
2022/11/29 11:48:14;;;;;;;12.57;5.50;;;;;;;;;;4901896;29;20188;-61
2022/11/29 11:50:58;;;;;;;6.55;2.20;;;;;;;;;;4931260;29;20044;-58
2022/11/29 11:53:29;;;;;;;0.60;0.28;;;;;;;;;;4931154;29;20520;-59
2022/11/29 11:56:09;;;;;;;0.82;0.43;;;;;;;;;;4900130;29;20051;-58
2022/11/29 11:59:00;;;;;;;1.90;0.90;;;;;;;;;;4931441;29;20064;-59
2022/11/29 12:01:37;;;;;;;1.30;0.80;;;;;;;;;;4931555;29;20467;-59
2022/11/29 12:04:21;;;;;;;0.77;0.63;;;;;;;;;;4932137;29;20057;-59
2022/11/29 12:07:15;;;;;;;3.05;1.27;;;;;;;;;;4934892;29;20056;-59
2022/11/29 12:09:51;;;;;;;3.90;1.70;;;;;;;;;;4945717;29;20070;-59
2022/11/29 12:12:25;;;;;;;15.70;8.57;;;;;;;;;;4970261;28;20083;-59
2022/11/29 12:15:19;;;;;;;2.13;1.10;;;;;;;;;;4922669;29;20047;-60
2022/11/29 12:18:30;;;;;;;2.10;0.90;;;;;;;;;;4922813;29;20047;-59
2022/11/29 12:21:21;;;;;;;3.03;1.90;;;;;;;;;;4966979;28;20051;-59
2022/11/29 12:24:24;;;;;;;3.53;1.08;;;;;;;;;;4974059;28;20059;-60
2022/11/29 12:27:02;;;;;;;1.80;0.50;;;;;;;;;;4941783;28;20061;-62
2022/11/29 12:29:34;;;;;;;0.32;0.20;;;;;;;;;;4973712;28;20077;-60
2022/11/29 12:32:35;;;;;;;0.52;0.40;;;;;;;;;;4973850;28;20573;-60
2022/11/29 12:35:43;;;;;;;1.58;0.90;;;;;;;;;;4973594;28;20057;-62
2022/11/29 12:38:47;;;;;;;0.70;0.52;;;;;;;;;;4927580;28;20098;-61
2022/11/29 12:41:32;;;;;;;1.60;0.57;;;;;;;;;;4888030;29;20070;-62
2022/11/29 12:44:32;;;;;;;0.30;0.20;;;;;;;;;;4934794;29;20066;-60
2022/11/29 12:47:12;;;;;;;1.42;0.70;;;;;;;;;;4896884;29;20056;-60
2022/11/29 12:50:28;;;;;;;2.10;0.50;;;;;;;;;;4896855;29;20060;-61
2022/11/29 12:53:05;;;;;;;1.67;1.35;;;;;;;;;;4881148;29;20179;-66
2022/11/29 12:55:43;;;;;;;1.00;0.30;;;;;;;;;;4889138;29;20059;-62
2022/11/29 12:58:17;;;;;;;0.95;0.52;;;;;;;;;;4890773;29;20430;-61
2022/11/29 13:00:54;;;;;;;1.83;1.25;;;;;;;;;;4847279;29;20057;-61
2022/11/29 13:03:43;;;;;;;1.27;0.73;;;;;;;;;;4847470;29;20501;-63
2022/11/29 13:06:42;;;;;;;3.05;1.80;;;;;;;;;;4878020;29;20421;-61
2022/11/29 13:09:18;;;;;;;4.13;3.13;;;;;;;;;;4896229;29;20049;-63
2022/11/29 13:12:02;;;;;;;2.83;2.13;;;;;;;;;;4915171;29;20056;-62
2022/11/29 13:14:38;;;;;;;1.60;0.52;;;;;;;;;;4915328;29;20108;-61
2022/11/29 13:17:43;;;;;;;0.52;0.28;;;;;;;;;;4914444;29;20060;-61
2022/11/29 13:20:24;;;;;;;0.82;0.40;;;;;;;;;;4933841;29;20063;-61
2022/11/29 13:23:13;;;;;;;0.50;0.35;;;;;;;;;;4911463;29;20059;-62
2022/11/29 13:25:49;;;;;;;1.45;0.90;;;;;;;;;;4949007;29;20106;-61
2022/11/29 13:28:31;;;;;;;1.20;0.60;;;;;;;;;;4933528;29;20056;-61
2022/11/29 13:31:06;;;;;;;0.70;0.30;;;;;;;;;;4899131;29;20087;-61
2022/11/29 13:33:40;;;;;;;3.65;2.25;;;;;;;;;;4867632;29;20067;-66
2022/11/29 13:36:49;;;;;;;2.38;1.23;;;;;;;;;;4952017;29;20052;-64
2022/11/29 13:39:47;;;;;;;3.55;1.33;;;;;;;;;;4903538;29;20055;-61
2022/11/29 13:42:20;;;;;;;1.63;0.85;;;;;;;;;;4932692;29;20067;-63
2022/11/29 13:45:17;;;;;;;2.45;0.30;;;;;;;;;;4886045;29;20074;-63
2022/11/29 13:47:59;;;;;;;2.00;0.80;;;;;;;;;;4933133;29;20063;-61
2022/11/29 13:50:45;;;;;;;3.17;0.43;;;;;;;;;;4918844;29;20605;-61
2022/11/29 13:53:24;;;;;;;1.10;0.30;;;;;;;;;;4932593;29;20544;-60
2022/11/29 13:56:00;;;;;;;1.75;0.50;;;;;;;;;;4932016;29;20056;-59
2022/11/29 13:58:33;;;;;;;1.58;0.45;;;;;;;;;;5009903;28;20049;-61
2022/11/29 14:01:13;;;;;;;0.65;0.40;;;;;;;;;;4991071;28;20057;-64
2022/11/29 14:03:49;;;;;;;0.40;0.20;;;;;;;;;;5006170;28;20049;-62
2022/11/29 14:06:31;;;;;;;1.35;0.68;;;;;;;;;;5013468;28;20046;-62
2022/11/29 14:09:27;;;;;;;0.50;0.30;;;;;;;;;;5027494;28;20076;-65
2022/11/29 14:12:24;;;;;;;1.00;0.60;;;;;;;;;;5009741;28;20401;-62
2022/11/29 14:15:02;;;;;;;0.50;0.30;;;;;;;;;;5010221;28;20050;-63
2022/11/29 14:17:56;;;;;;;1.38;0.40;;;;;;;;;;5009197;28;20509;-63
2022/11/29 14:20:28;;;;;;;0.50;0.30;;;;;;;;;;5009754;28;20153;-64
2022/11/29 14:23:05;;;;;;;0.20;0.20;;;;;;;;;;5009897;28;20057;-64
2022/11/29 14:25:37;;;;;;;0.40;0.20;;;;;;;;;;5008786;28;20065;-62
2022/11/29 14:28:22;;;;;;;0.22;0.20;;;;;;;;;;4981935;28;20058;-61
2022/11/29 14:30:55;;;;;;;0.93;0.20;;;;;;;;;;4976229;28;20070;-62
2022/11/29 14:33:44;;;;;;;0.28;0.25;;;;;;;;;;4993179;28;20046;-62
2022/11/29 14:36:20;;;;;;;0.93;0.22;;;;;;;;;;4993689;28;20056;-62
2022/11/29 14:39:02;;;;;;;0.82;0.20;;;;;;;;;;5010298;28;20058;-61
2022/11/29 14:41:59;;;;;;;0.30;0.30;;;;;;;;;;5010391;28;20050;-62
2022/11/29 14:44:32;;;;;;;1.08;0.60;;;;;;;;;;5010246;28;20409;-64
2022/11/29 14:47:06;;;;;;;0.55;0.50;;;;;;;;;;5010233;28;20050;-65
2022/11/29 14:49:44;;;;;;;0.32;0.25;;;;;;;;;;4993581;28;20465;-64
2022/11/29 14:52:14;;;;;;;0.22;0.22;;;;;;;;;;5011245;28;20062;-64
2022/11/29 14:55:14;;;;;;;1.08;0.20;;;;;;;;;;5012586;28;20056;-64
2022/11/29 14:58:00;;;;;;;0.43;0.30;;;;;;;;;;4993680;28;20061;-64
2022/11/29 15:00:46;;;;;;;0.60;0.40;;;;;;;;;;5012425;28;20053;-64
2022/11/29 15:03:16;;;;;;;0.45;0.25;;;;;;;;;;5011896;28;20512;-64
2022/11/29 15:06:09;;;;;;;0.55;0.20;;;;;;;;;;5012213;28;20057;-65
2022/11/29 15:09:03;;;;;;;1.33;0.30;;;;;;;;;;4993350;28;20060;-65
2022/11/29 15:11:45;;;;;;;0.22;0.20;;;;;;;;;;4961101;28;20049;-64
2022/11/29 15:14:19;;;;;;;0.30;0.20;;;;;;;;;;5009779;28;20072;-64
2022/11/29 15:16:58;;;;;;;1.45;0.20;;;;;;;;;;5009751;28;20050;-64
2022/11/29 15:20:04;;;;;;;0.35;0.20;;;;;;;;;;5009654;28;20065;-64
2022/11/29 15:22:51;;;;;;;1.30;0.30;;;;;;;;;;5009876;28;20046;-64
2022/11/29 15:25:32;;;;;;;1.38;0.20;;;;;;;;;;4993050;28;20050;-64
2022/11/29 15:28:05;;;;;;;0.40;0.30;;;;;;;;;;4995020;28;20050;-64
2022/11/29 15:30:39;;;;;;;1.30;0.43;;;;;;;;;;5009518;28;20414;-63
2022/11/29 15:33:23;;;;;;;0.77;0.40;;;;;;;;;;5009473;28;20058;-64
2022/11/29 15:35:56;;;;;;;1.23;0.30;;;;;;;;;;4957215;28;20038;-63
2022/11/29 15:38:27;;;;;;;1.08;0.30;;;;;;;;;;4989423;28;20076;-63
2022/11/29 15:40:57;;;;;;;0.70;0.30;;;;;;;;;;4989038;28;20507;-64
2022/11/29 15:43:36;;;;;;;1.30;0.30;;;;;;;;;;4989624;28;20438;-63
2022/11/29 15:46:18;;;;;;;0.38;0.30;;;;;;;;;;4989623;28;20074;-63
2022/11/29 15:48:49;;;;;;;1.05;0.40;;;;;;;;;;4957435;28;20054;-63
2022/11/29 15:51:22;;;;;;;1.17;0.30;;;;;;;;;;4973749;28;20054;-63
2022/11/29 15:54:08;;;;;;;2.10;0.50;;;;;;;;;;4989603;28;20069;-63
2022/11/29 15:56:51;;;;;;;1.48;0.70;;;;;;;;;;4989788;28;20469;-63
2022/11/29 15:59:40;;;;;;;0.77;0.13;;;;;;;;;;4989009;28;20058;-64
2022/11/29 16:02:25;;;;;;;1.17;0.20;;;;;;;;;;4957079;28;20541;-63
2022/11/29 16:05:02;;;;;;;1.42;0.40;;;;;;;;;;4973147;28;20061;-63
2022/11/29 16:07:33;;;;;;;2.70;0.30;;;;;;;;;;4973477;28;20050;-63
2022/11/29 16:10:16;;;;;;;0.20;0.20;;;;;;;;;;4989738;28;20130;-64
2022/11/29 16:12:55;;;;;;;2.30;0.28;;;;;;;;;;4993516;28;20062;-63
2022/11/29 16:15:31;;;;;;;2.65;0.20;;;;;;;;;;5011368;28;20046;-64
2022/11/29 16:18:22;;;;;;;0.57;0.30;;;;;;;;;;5025586;28;20054;-63